createdAt,value
2018-02-25T00:00:01.869Z,85.17
2018-02-25T00:01:01.815Z,85.17
2018-02-25T00:02:01.992Z,85.17
2018-02-25T00:03:01.796Z,84.61
2018-02-25T00:04:01.776Z,85.17
2018-02-25T00:05:01.812Z,84.99
2018-02-25T00:06:01.753Z,84.89
2018-02-25T00:07:01.742Z,84.89
2018-02-25T00:08:01.730Z,85.74
2018-02-25T00:09:01.715Z,85.70
2018-02-25T00:10:01.748Z,86.26
2018-02-25T00:11:01.692Z,87.11
2018-02-25T00:12:01.682Z,86.64
2018-02-25T00:13:01.669Z,87.02
2018-02-25T00:14:01.656Z,88.24
2018-02-25T00:15:01.686Z,88.24
2018-02-25T00:16:01.630Z,87.96
2018-02-25T00:17:01.621Z,87.30
2018-02-25T00:18:02.416Z,86.92
2018-02-25T00:19:01.594Z,87.39
2018-02-25T00:20:01.642Z,87.86
2018-02-25T00:21:01.571Z,88.52
2018-02-25T00:22:01.596Z,88.62
2018-02-25T00:23:01.554Z,89.18
2018-02-25T00:24:01.540Z,89.18
2018-02-25T00:25:02.146Z,89.18
2018-02-25T00:26:01.512Z,89.56
2018-02-25T00:27:01.496Z,89.84
2018-02-25T00:28:01.485Z,89.56
2018-02-25T00:29:01.473Z,89.84
2018-02-25T00:30:01.515Z,90.12
2018-02-25T00:31:01.446Z,90.31
2018-02-25T00:32:01.476Z,90.12
2018-02-25T00:33:01.420Z,90.12
2018-02-25T00:34:01.409Z,90.41
2018-02-25T00:35:01.393Z,90.41
2018-02-25T00:36:01.584Z,91.06
2018-02-25T00:37:01.389Z,91.25
2018-02-25T00:38:01.358Z,91.16
2018-02-25T00:39:01.348Z,91.44
2018-02-25T00:40:01.331Z,91.39
2018-02-25T00:41:01.365Z,91.63
2018-02-25T00:42:01.306Z,91.77
2018-02-25T00:43:01.293Z,92.76
2018-02-25T00:44:01.280Z,92.95
2018-02-25T00:45:01.269Z,92.95
2018-02-25T00:46:01.312Z,92.95
2018-02-25T00:47:01.287Z,92.76
2018-02-25T00:48:01.229Z,92.38
2018-02-25T00:49:01.219Z,92.19
2018-02-25T00:50:01.202Z,92.00
2018-02-25T00:51:01.190Z,91.44
2018-02-25T00:52:01.235Z,91.53
2018-02-25T00:53:01.168Z,91.63
2018-02-25T00:54:01.150Z,91.63
2018-02-25T00:55:01.141Z,91.44
2018-02-25T00:56:01.128Z,90.78
2018-02-25T00:57:01.159Z,90.59
2018-02-25T00:58:01.141Z,90.88
2018-02-25T00:59:01.084Z,90.50
2018-02-25T01:00:01.074Z,90.88
2018-02-25T01:01:01.062Z,90.78
2018-02-25T01:02:01.045Z,90.59
2018-02-25T01:03:01.076Z,90.78
2018-02-25T01:04:01.019Z,90.78
2018-02-25T01:05:01.008Z,90.78
2018-02-25T01:06:00.998Z,90.59
2018-02-25T01:07:00.981Z,90.78
2018-02-25T01:08:01.017Z,91.06
2018-02-25T01:09:00.958Z,90.97
2018-02-25T01:10:00.942Z,91.53
2018-02-25T01:11:00.929Z,91.25
2018-02-25T01:12:00.919Z,90.78
2018-02-25T01:13:00.958Z,90.78
2018-02-25T01:14:00.894Z,90.12
2018-02-25T01:15:00.877Z,90.03
2018-02-25T01:16:00.890Z,89.94
2018-02-25T01:17:00.894Z,89.47
2018-02-25T01:18:00.840Z,89.47
2018-02-25T01:19:00.870Z,89.28
2018-02-25T01:20:00.810Z,89.09
2018-02-25T01:21:00.799Z,89.28
2018-02-25T01:22:00.783Z,89.37
2018-02-25T01:23:00.771Z,88.90
2018-02-25T01:24:00.804Z,88.52
2018-02-25T01:25:00.747Z,88.62
2018-02-25T01:26:00.735Z,88.71
2018-02-25T01:27:00.719Z,88.62
2018-02-25T01:28:00.707Z,88.52
2018-02-25T01:29:00.753Z,89.00
2018-02-25T01:30:00.678Z,88.81
2018-02-25T01:31:00.752Z,88.43
2018-02-25T01:32:00.654Z,88.52
2018-02-25T01:33:00.646Z,88.62
2018-02-25T01:34:00.626Z,88.62
2018-02-25T01:35:00.616Z,88.62
2018-02-25T01:36:00.783Z,88.90
2018-02-25T01:37:00.600Z,88.43
2018-02-25T01:38:00.571Z,88.05
2018-02-25T01:39:00.562Z,88.52
2018-02-25T01:40:00.613Z,88.34
2018-02-25T01:41:00.578Z,88.34
2018-02-25T01:42:00.521Z,89.00
2018-02-25T01:43:00.513Z,88.71
2018-02-25T01:44:00.501Z,88.71
2018-02-25T01:45:00.485Z,88.90
2018-02-25T01:46:00.515Z,89.28
2018-02-25T01:47:00.463Z,89.56
2018-02-25T01:48:00.446Z,90.22
2018-02-25T01:49:00.434Z,90.31
2018-02-25T01:50:00.479Z,89.75
2018-02-25T01:51:00.452Z,89.94
2018-02-25T01:52:00.394Z,89.75
2018-02-25T01:53:00.383Z,90.31
2018-02-25T01:54:00.369Z,90.03
2018-02-25T01:55:00.355Z,90.22
2018-02-25T01:56:00.383Z,90.59
2018-02-25T01:57:00.334Z,90.97
2018-02-25T01:58:00.315Z,90.59
2018-02-25T01:59:00.306Z,90.97
2018-02-25T02:00:00.290Z,90.78
2018-02-25T02:01:00.329Z,90.88
2018-02-25T02:02:00.262Z,90.97
2018-02-25T02:03:00.249Z,90.03
2018-02-25T02:04:00.240Z,90.12
2018-02-25T02:05:00.223Z,90.78
2018-02-25T02:06:00.251Z,90.97
2018-02-25T02:07:00.620Z,90.97
2018-02-25T02:08:00.186Z,91.06
2018-02-25T02:09:00.171Z,91.06
2018-02-25T02:10:00.156Z,90.59
2018-02-25T02:11:00.185Z,90.97
2018-02-25T02:12:00.133Z,91.06
2018-02-25T02:13:00.120Z,91.06
2018-02-25T02:14:00.103Z,91.25
2018-02-25T02:15:00.092Z,91.53
2018-02-25T02:16:00.117Z,91.25
2018-02-25T02:17:00.068Z,91.53
2018-02-25T02:18:00.055Z,91.53
2018-02-25T02:19:00.043Z,91.63
2018-02-25T02:20:00.029Z,91.44
2018-02-25T02:21:00.056Z,91.63
2018-02-25T02:22:00.007Z,91.63
2018-02-25T02:22:59.985Z,91.35
2018-02-25T02:23:59.977Z,90.97
2018-02-25T02:24:59.961Z,90.88
2018-02-25T02:26:00.004Z,90.97
2018-02-25T02:26:59.933Z,91.25
2018-02-25T02:27:59.930Z,91.25
2018-02-25T02:28:59.906Z,90.59
2018-02-25T02:29:59.892Z,90.50
2018-02-25T02:30:59.917Z,91.25
2018-02-25T02:31:59.905Z,90.97
2018-02-25T02:32:59.860Z,90.97
2018-02-25T02:33:59.842Z,90.88
2018-02-25T02:34:59.828Z,90.97
2018-02-25T02:35:59.819Z,91.06
2018-02-25T02:36:59.860Z,91.06
2018-02-25T02:37:59.790Z,91.53
2018-02-25T02:38:59.776Z,91.82
2018-02-25T02:39:59.810Z,91.63
2018-02-25T02:40:59.749Z,91.53
2018-02-25T02:41:59.783Z,92.10
2018-02-25T02:42:59.721Z,92.19
2018-02-25T02:43:59.710Z,92.00
2018-02-25T02:44:59.714Z,91.44
2018-02-25T02:45:59.724Z,92.00
2018-02-25T02:46:59.672Z,91.53
2018-02-25T02:47:59.667Z,91.63
2018-02-25T02:48:59.647Z,91.53
2018-02-25T02:49:59.629Z,91.63
2018-02-25T02:50:59.659Z,91.63
2018-02-25T02:51:59.618Z,91.44
2018-02-25T02:52:59.589Z,91.63
2018-02-25T02:53:59.579Z,92.10
2018-02-25T02:54:59.562Z,92.00
2018-02-25T02:55:59.592Z,92.00
2018-02-25T02:56:59.537Z,92.00
2018-02-25T02:57:59.522Z,92.00
2018-02-25T02:58:59.510Z,91.91
2018-02-25T02:59:59.502Z,92.19
2018-02-25T03:00:59.553Z,92.10
2018-02-25T03:01:59.525Z,92.19
2018-02-25T03:02:59.456Z,92.29
2018-02-25T03:03:59.443Z,92.29
2018-02-25T03:04:59.430Z,92.29
2018-02-25T03:05:59.457Z,92.38
2018-02-25T03:06:59.424Z,92.29
2018-02-25T03:07:59.414Z,92.19
2018-02-25T03:08:59.400Z,92.29
2018-02-25T03:09:59.425Z,92.00
2018-02-25T03:10:59.370Z,91.53
2018-02-25T03:11:59.357Z,92.00
2018-02-25T03:12:59.349Z,92.00
2018-02-25T03:13:59.327Z,92.19
2018-02-25T03:14:59.376Z,92.00
2018-02-25T03:15:59.814Z,92.10
2018-02-25T03:16:59.294Z,92.19
2018-02-25T03:17:59.280Z,92.47
2018-02-25T03:18:59.263Z,92.66
2018-02-25T03:19:59.252Z,92.47
2018-02-25T03:20:59.278Z,92.47
2018-02-25T03:21:59.226Z,92.66
2018-02-25T03:22:59.209Z,92.29
2018-02-25T03:23:59.197Z,92.38
2018-02-25T03:24:59.185Z,92.38
2018-02-25T03:25:59.226Z,92.38
2018-02-25T03:26:59.165Z,92.47
2018-02-25T03:27:59.148Z,92.76
2018-02-25T03:28:59.134Z,92.57
2018-02-25T03:29:59.118Z,92.47
2018-02-25T03:30:59.111Z,92.95
2018-02-25T03:31:59.134Z,92.95
2018-02-25T03:32:59.077Z,93.04
2018-02-25T03:33:59.062Z,93.13
2018-02-25T03:34:59.051Z,92.95
2018-02-25T03:35:59.036Z,93.32
2018-02-25T03:36:59.071Z,93.13
2018-02-25T03:37:59.012Z,93.04
2018-02-25T03:38:59.000Z,92.76
2018-02-25T03:39:58.985Z,93.23
2018-02-25T03:40:58.970Z,93.13
2018-02-25T03:41:58.996Z,92.66
2018-02-25T03:42:58.944Z,92.85
2018-02-25T03:43:58.931Z,92.85
2018-02-25T03:44:58.914Z,92.95
2018-02-25T03:45:58.905Z,93.23
2018-02-25T03:46:58.932Z,93.51
2018-02-25T03:47:58.878Z,93.61
2018-02-25T03:48:58.867Z,93.51
2018-02-25T03:49:58.849Z,94.17
2018-02-25T03:50:58.877Z,93.51
2018-02-25T03:51:58.820Z,93.61
2018-02-25T03:52:58.808Z,93.89
2018-02-25T03:53:58.795Z,93.32
2018-02-25T03:54:58.786Z,93.42
2018-02-25T03:55:58.809Z,92.85
2018-02-25T03:56:58.755Z,92.66
2018-02-25T03:57:58.742Z,92.66
2018-02-25T03:58:58.972Z,92.66
2018-02-25T03:59:58.714Z,92.85
2018-02-25T04:00:58.740Z,92.80
2018-02-25T04:01:58.689Z,93.13
2018-02-25T04:02:58.674Z,93.18
2018-02-25T04:03:58.661Z,93.28
2018-02-25T04:04:58.648Z,93.37
2018-02-25T04:05:58.701Z,93.46
2018-02-25T04:06:58.621Z,94.22
2018-02-25T04:07:58.607Z,94.31
2018-02-25T04:08:58.590Z,93.75
2018-02-25T04:09:58.579Z,94.22
2018-02-25T04:10:58.627Z,93.94
2018-02-25T04:11:58.589Z,93.84
2018-02-25T04:12:58.536Z,94.41
2018-02-25T04:13:58.522Z,94.31
2018-02-25T04:14:58.510Z,93.94
2018-02-25T04:15:58.641Z,93.18
2018-02-25T04:16:58.484Z,94.27
2018-02-25T04:17:58.467Z,93.98
2018-02-25T04:18:58.456Z,93.42
2018-02-25T04:19:58.440Z,92.66
2018-02-25T04:20:58.428Z,92.76
2018-02-25T04:21:58.453Z,92.29
2018-02-25T04:22:58.403Z,92.47
2018-02-25T04:23:58.386Z,92.76
2018-02-25T04:24:58.373Z,92.38
2018-02-25T04:25:58.360Z,91.82
2018-02-25T04:26:58.388Z,92.10
2018-02-25T04:27:58.374Z,91.53
2018-02-25T04:28:58.650Z,92.19
2018-02-25T04:29:58.303Z,92.29
2018-02-25T04:30:58.289Z,92.19
2018-02-25T04:31:58.319Z,92.38
2018-02-25T04:32:58.265Z,92.95
2018-02-25T04:33:58.248Z,92.66
2018-02-25T04:34:58.237Z,92.95
2018-02-25T04:35:58.226Z,93.13
2018-02-25T04:36:58.266Z,92.85
2018-02-25T04:37:58.196Z,92.57
2018-02-25T04:38:58.185Z,92.19
2018-02-25T04:39:58.168Z,91.63
2018-02-25T04:40:58.154Z,90.59
2018-02-25T04:41:58.180Z,90.59
2018-02-25T04:42:58.132Z,91.25
2018-02-25T04:43:58.115Z,90.59
2018-02-25T04:44:58.105Z,90.97
2018-02-25T04:45:58.084Z,91.06
2018-02-25T04:46:58.111Z,91.06
2018-02-25T04:47:58.059Z,91.06
2018-02-25T04:48:58.417Z,91.06
2018-02-25T04:49:58.033Z,90.59
2018-02-25T04:50:58.018Z,90.78
2018-02-25T04:51:58.045Z,90.78
2018-02-25T04:52:57.990Z,90.41
2018-02-25T04:53:57.978Z,90.12
2018-02-25T04:54:57.968Z,90.03
2018-02-25T04:55:57.950Z,89.94
2018-02-25T04:56:57.977Z,89.75
2018-02-25T04:57:57.920Z,89.65
2018-02-25T04:58:57.912Z,90.97
2018-02-25T04:59:57.896Z,91.35
2018-02-25T05:00:57.892Z,91.63
2018-02-25T05:01:57.930Z,91.35
2018-02-25T05:02:57.856Z,90.97
2018-02-25T05:03:57.849Z,90.69
2018-02-25T05:04:57.833Z,90.78
2018-02-25T05:05:57.815Z,90.59
2018-02-25T05:06:57.845Z,90.55
2018-02-25T05:07:57.788Z,91.02
2018-02-25T05:08:57.773Z,90.73
2018-02-25T05:09:57.760Z,90.83
2018-02-25T05:10:57.747Z,91.02
2018-02-25T05:11:57.778Z,91.39
2018-02-25T05:12:57.722Z,91.20
2018-02-25T05:13:57.708Z,91.49
2018-02-25T05:14:57.693Z,91.58
2018-02-25T05:15:57.681Z,91.39
2018-02-25T05:16:57.723Z,91.49
2018-02-25T05:17:57.657Z,91.49
2018-02-25T05:18:57.637Z,91.39
2018-02-25T05:19:57.624Z,91.67
2018-02-25T05:20:57.614Z,91.58
2018-02-25T05:21:57.659Z,91.58
2018-02-25T05:22:57.583Z,91.58
2018-02-25T05:23:57.568Z,91.58
2018-02-25T05:24:57.556Z,91.58
2018-02-25T05:25:57.543Z,91.67
2018-02-25T05:26:57.586Z,91.96
2018-02-25T05:27:57.520Z,92.05
2018-02-25T05:28:57.516Z,92.62
2018-02-25T05:29:57.489Z,92.71
2018-02-25T05:30:57.478Z,92.90
2018-02-25T05:31:57.497Z,92.52
2018-02-25T05:32:57.450Z,92.90
2018-02-25T05:33:57.432Z,92.99
2018-02-25T05:34:57.417Z,93.18
2018-02-25T05:35:57.408Z,93.37
2018-02-25T05:36:57.433Z,93.46
2018-02-25T05:37:57.376Z,93.28
2018-02-25T05:38:57.370Z,93.56
2018-02-25T05:39:57.348Z,93.28
2018-02-25T05:40:57.335Z,93.56
2018-02-25T05:41:57.368Z,93.65
2018-02-25T05:42:57.306Z,94.03
2018-02-25T05:43:57.292Z,94.22
2018-02-25T05:44:57.278Z,93.94
2018-02-25T05:45:57.264Z,93.56
2018-02-25T05:46:57.308Z,93.94
2018-02-25T05:47:57.636Z,94.03
2018-02-25T05:48:57.225Z,94.03
2018-02-25T05:49:57.207Z,93.56
2018-02-25T05:50:57.196Z,93.65
2018-02-25T05:51:57.226Z,93.56
2018-02-25T05:52:57.207Z,94.03
2018-02-25T05:53:57.153Z,93.84
2018-02-25T05:54:57.140Z,94.12
2018-02-25T05:55:57.126Z,93.94
2018-02-25T05:56:57.111Z,93.75
2018-02-25T05:57:57.137Z,93.84
2018-02-25T05:58:57.083Z,93.94
2018-02-25T05:59:57.069Z,94.03
2018-02-25T06:00:57.053Z,94.12
2018-02-25T06:01:57.037Z,93.94
2018-02-25T06:02:57.082Z,94.22
2018-02-25T06:03:57.012Z,94.22
2018-02-25T06:04:56.997Z,94.22
2018-02-25T06:05:56.982Z,94.31
2018-02-25T06:06:57.012Z,93.75
2018-02-25T06:07:56.995Z,93.65
2018-02-25T06:08:56.941Z,93.94
2018-02-25T06:09:56.927Z,93.46
2018-02-25T06:10:56.917Z,94.12
2018-02-25T06:11:56.898Z,94.03
2018-02-25T06:12:56.928Z,94.22
2018-02-25T06:13:56.875Z,93.94
2018-02-25T06:14:56.854Z,94.31
2018-02-25T06:15:56.967Z,94.12
2018-02-25T06:16:56.868Z,93.94
2018-02-25T06:17:56.817Z,94.31
2018-02-25T06:18:56.804Z,94.41
2018-02-25T06:19:56.789Z,94.31
2018-02-25T06:20:56.773Z,94.31
2018-02-25T06:21:56.756Z,94.69
2018-02-25T06:22:56.801Z,94.12
2018-02-25T06:23:56.730Z,93.94
2018-02-25T06:24:56.713Z,94.41
2018-02-25T06:25:56.702Z,93.65
2018-02-25T06:26:56.738Z,94.03
2018-02-25T06:27:56.669Z,93.84
2018-02-25T06:28:56.722Z,94.31
2018-02-25T06:29:56.642Z,94.31
2018-02-25T06:30:56.632Z,94.22
2018-02-25T06:31:56.677Z,94.03
2018-02-25T06:32:56.601Z,94.03
2018-02-25T06:33:56.586Z,94.12
2018-02-25T06:34:56.576Z,94.12
2018-02-25T06:35:56.561Z,93.75
2018-02-25T06:36:56.583Z,93.75
2018-02-25T06:37:56.589Z,93.18
2018-02-25T06:38:56.517Z,94.03
2018-02-25T06:39:56.504Z,93.56
2018-02-25T06:40:56.488Z,93.37
2018-02-25T06:41:56.516Z,93.75
2018-02-25T06:42:56.462Z,93.28
2018-02-25T06:43:56.445Z,92.80
2018-02-25T06:44:56.430Z,92.71
2018-02-25T06:45:56.417Z,92.90
2018-02-25T06:46:56.441Z,92.90
2018-02-25T06:47:56.393Z,92.52
2018-02-25T06:48:56.375Z,92.33
2018-02-25T06:49:56.361Z,92.15
2018-02-25T06:50:56.347Z,91.77
2018-02-25T06:51:56.376Z,91.77
2018-02-25T06:52:56.327Z,92.15
2018-02-25T06:53:56.308Z,91.49
2018-02-25T06:54:56.292Z,91.20
2018-02-25T06:55:56.276Z,90.88
2018-02-25T06:56:56.308Z,90.69
2018-02-25T06:57:56.254Z,89.75
2018-02-25T06:58:56.240Z,87.91
2018-02-25T06:59:56.232Z,85.74
2018-02-25T07:00:56.215Z,84.05
2018-02-25T07:01:56.260Z,82.58
2018-02-25T07:02:56.188Z,79.56
2018-02-25T07:03:56.173Z,76.26
2018-02-25T07:04:56.165Z,74.38
2018-02-25T07:05:56.150Z,72.68
2018-02-25T07:06:56.178Z,72.30
2018-02-25T07:07:56.175Z,71.26
2018-02-25T07:08:56.119Z,71.17
2018-02-25T07:09:56.107Z,70.89
2018-02-25T07:10:56.097Z,71.45
2018-02-25T07:11:56.086Z,71.45
2018-02-25T07:12:56.116Z,71.83
2018-02-25T07:13:56.065Z,72.21
2018-02-25T07:14:56.058Z,72.68
2018-02-25T07:15:56.047Z,73.30
2018-02-25T07:16:56.040Z,73.77
2018-02-25T07:17:56.065Z,74.53
2018-02-25T07:18:56.018Z,75.47
2018-02-25T07:19:56.008Z,75.75
2018-02-25T07:20:56.000Z,76.13
2018-02-25T07:21:55.993Z,77.64
2018-02-25T07:22:56.020Z,79.61
2018-02-25T07:23:55.972Z,79.80
2018-02-25T07:24:55.964Z,80.18
2018-02-25T07:25:55.956Z,80.52
2018-02-25T07:26:55.945Z,81.74
2018-02-25T07:27:56.000Z,82.63
2018-02-25T07:28:55.927Z,82.92
2018-02-25T07:29:55.915Z,83.76
2018-02-25T07:30:55.911Z,84.05
2018-02-25T07:31:55.934Z,83.34
2018-02-25T07:32:55.931Z,82.40
2018-02-25T07:33:55.884Z,82.78
2018-02-25T07:34:55.884Z,82.78
2018-02-25T07:35:55.862Z,83.15
2018-02-25T07:36:55.854Z,83.67
2018-02-25T07:37:55.876Z,83.06
2018-02-25T07:38:55.830Z,82.68
2018-02-25T07:39:55.824Z,83.10
2018-02-25T07:40:55.819Z,82.87
2018-02-25T07:41:55.841Z,82.82
2018-02-25T07:42:55.793Z,82.92
2018-02-25T07:43:55.781Z,83.20
2018-02-25T07:44:55.772Z,82.92
2018-02-25T07:45:55.764Z,82.63
2018-02-25T07:46:55.810Z,82.63
2018-02-25T07:47:55.740Z,82.82
2018-02-25T07:48:56.686Z,82.82
2018-02-25T07:49:55.758Z,83.20
2018-02-25T07:50:55.717Z,82.63
2018-02-25T07:51:55.749Z,81.78
2018-02-25T07:52:55.696Z,81.12
2018-02-25T07:53:55.684Z,80.84
2018-02-25T07:54:55.679Z,81.12
2018-02-25T07:55:55.713Z,80.37
2018-02-25T07:56:55.712Z,80.37
2018-02-25T07:57:55.649Z,79.71
2018-02-25T07:58:55.640Z,80.18
2018-02-25T07:59:55.633Z,79.71
2018-02-25T08:00:55.632Z,79.71
2018-02-25T08:01:55.654Z,79.99
2018-02-25T08:02:55.642Z,81.31
2018-02-25T08:03:55.593Z,81.69
2018-02-25T08:04:55.583Z,81.12
2018-02-25T08:05:55.582Z,81.03
2018-02-25T08:06:55.564Z,79.90
2018-02-25T08:07:55.602Z,79.99
2018-02-25T08:08:55.553Z,80.27
2018-02-25T08:09:55.538Z,79.80
2018-02-25T08:10:56.186Z,79.43
2018-02-25T08:11:55.526Z,80.08
2018-02-25T08:12:55.559Z,79.71
2018-02-25T08:13:55.503Z,80.08
2018-02-25T08:14:55.497Z,79.80
2018-02-25T08:15:56.183Z,80.08
2018-02-25T08:16:55.480Z,80.08
2018-02-25T08:17:55.535Z,79.71
2018-02-25T08:18:56.181Z,79.61
2018-02-25T08:19:55.450Z,79.61
2018-02-25T08:20:55.439Z,78.77
2018-02-25T08:21:55.434Z,79.05
2018-02-25T08:22:55.436Z,78.58
2018-02-25T08:23:55.455Z,78.77
2018-02-25T08:24:55.407Z,79.33
2018-02-25T08:25:55.396Z,79.61
2018-02-25T08:26:55.388Z,79.80
2018-02-25T08:27:55.384Z,79.43
2018-02-25T08:28:55.418Z,79.33
2018-02-25T08:29:55.362Z,79.43
2018-02-25T08:30:55.353Z,79.43
2018-02-25T08:31:55.341Z,78.58
2018-02-25T08:32:55.334Z,78.86
2018-02-25T08:33:55.382Z,79.52
2018-02-25T08:34:55.315Z,79.24
2018-02-25T08:35:55.308Z,79.24
2018-02-25T08:36:55.297Z,78.77
2018-02-25T08:37:55.317Z,78.77
2018-02-25T08:38:55.279Z,78.49
2018-02-25T08:39:55.312Z,78.77
2018-02-25T08:40:55.260Z,79.71
2018-02-25T08:41:55.304Z,79.37
2018-02-25T08:42:55.246Z,78.05
2018-02-25T08:43:55.237Z,77.86
2018-02-25T08:44:55.272Z,76.70
2018-02-25T08:45:55.218Z,77.01
2018-02-25T08:46:55.212Z,77.64
2018-02-25T08:47:55.209Z,77.92
2018-02-25T08:48:55.203Z,78.24
2018-02-25T08:49:55.244Z,78.71
2018-02-25T08:50:55.179Z,78.15
2018-02-25T08:51:55.212Z,77.49
2018-02-25T08:52:55.167Z,77.55
2018-02-25T08:53:55.150Z,77.73
2018-02-25T08:54:55.150Z,77.36
2018-02-25T08:55:55.188Z,76.98
2018-02-25T08:56:55.498Z,77.64
2018-02-25T08:57:55.127Z,77.36
2018-02-25T08:58:55.125Z,77.64
2018-02-25T08:59:55.107Z,77.45
2018-02-25T09:00:55.148Z,77.73
2018-02-25T09:01:55.094Z,78.24
2018-02-25T09:02:55.086Z,77.58
2018-02-25T09:03:55.081Z,75.98
2018-02-25T09:04:55.077Z,75.04
2018-02-25T09:05:55.125Z,74.57
2018-02-25T09:06:55.060Z,74.10
2018-02-25T09:07:55.052Z,74.19
2018-02-25T09:08:55.046Z,74.28
2018-02-25T09:09:55.039Z,74.28
2018-02-25T09:10:55.077Z,74.10
2018-02-25T09:11:55.071Z,73.34
2018-02-25T09:12:55.024Z,74.28
2018-02-25T09:13:55.017Z,75.32
2018-02-25T09:14:55.016Z,76.17
2018-02-25T09:15:55.007Z,74.85
2018-02-25T09:16:55.043Z,74.66
2018-02-25T09:17:55.005Z,73.75
2018-02-25T09:18:55.021Z,71.96
2018-02-25T09:19:55.011Z,70.70
2018-02-25T09:20:55.003Z,71.83
2018-02-25T09:21:55.026Z,72.30
2018-02-25T09:22:54.992Z,72.68
2018-02-25T09:23:54.983Z,73.34
2018-02-25T09:24:54.983Z,73.62
2018-02-25T09:25:54.994Z,74.10
2018-02-25T09:26:55.012Z,73.91
2018-02-25T09:27:54.969Z,73.62
2018-02-25T09:28:55.141Z,74.57
2018-02-25T09:29:55.687Z,73.94
2018-02-25T09:30:54.955Z,71.92
2018-02-25T09:31:55.018Z,72.21
2018-02-25T09:32:54.955Z,72.68
2018-02-25T09:33:54.956Z,73.62
2018-02-25T09:34:54.965Z,74.05
2018-02-25T09:35:54.986Z,74.66
2018-02-25T09:36:54.950Z,74.28
2018-02-25T09:37:54.970Z,74.10
2018-02-25T09:38:54.936Z,73.25
2018-02-25T09:39:54.932Z,73.72
2018-02-25T09:40:54.912Z,73.25
2018-02-25T09:41:54.922Z,72.91
2018-02-25T09:42:54.963Z,70.54
2018-02-25T09:43:54.914Z,70.17
2018-02-25T09:44:54.933Z,69.83
2018-02-25T09:45:54.922Z,68.95
2018-02-25T09:46:54.904Z,68.76
2018-02-25T09:47:54.962Z,67.81
2018-02-25T09:48:54.905Z,67.34
2018-02-25T09:49:54.890Z,68.00
2018-02-25T09:50:54.931Z,68.41
2018-02-25T09:51:54.892Z,66.68
2018-02-25T09:52:54.935Z,66.77
2018-02-25T09:53:55.132Z,66.96
2018-02-25T09:54:54.897Z,68.60
2018-02-25T09:55:54.900Z,67.85
2018-02-25T09:56:54.903Z,66.87
2018-02-25T09:57:54.957Z,69.13
2018-02-25T09:58:54.904Z,68.85
2018-02-25T09:59:54.910Z,69.04
2018-02-25T10:00:54.912Z,67.85
2018-02-25T10:01:54.905Z,66.90
2018-02-25T10:02:54.972Z,66.52
2018-02-25T10:03:54.912Z,65.26
2018-02-25T10:04:54.912Z,65.08
2018-02-25T10:05:55.686Z,65.48
2018-02-25T10:06:54.931Z,64.51
2018-02-25T10:07:54.980Z,64.07
2018-02-25T10:08:54.959Z,64.26
2018-02-25T10:09:54.925Z,63.57
2018-02-25T10:10:54.930Z,63.57
2018-02-25T10:11:54.935Z,64.04
2018-02-25T10:12:54.949Z,64.64
2018-02-25T10:13:54.985Z,63.41
2018-02-25T10:14:55.841Z,63.22
2018-02-25T10:15:54.952Z,63.70
2018-02-25T10:16:54.960Z,63.22
2018-02-25T10:17:54.952Z,62.91
2018-02-25T10:18:55.010Z,63.19
2018-02-25T10:19:54.964Z,63.38
2018-02-25T10:20:54.982Z,63.76
2018-02-25T10:21:54.968Z,64.54
2018-02-25T10:22:55.682Z,63.41
2018-02-25T10:23:54.975Z,62.94
2018-02-25T10:24:55.021Z,62.28
2018-02-25T10:25:54.977Z,62.09
2018-02-25T10:26:54.981Z,62.37
2018-02-25T10:27:54.989Z,62.06
2018-02-25T10:28:54.992Z,62.75
2018-02-25T10:29:55.058Z,62.18
2018-02-25T10:30:55.042Z,62.75
2018-02-25T10:31:55.005Z,62.37
2018-02-25T10:32:55.012Z,61.61
2018-02-25T10:33:55.295Z,60.49
2018-02-25T10:34:55.056Z,60.39
2018-02-25T10:35:55.019Z,61.21
2018-02-25T10:36:55.024Z,61.24
2018-02-25T10:37:55.028Z,61.33
2018-02-25T10:38:55.036Z,60.86
2018-02-25T10:39:55.094Z,60.96
2018-02-25T10:40:55.085Z,62.47
2018-02-25T10:41:55.049Z,61.61
2018-02-25T10:42:55.067Z,61.52
2018-02-25T10:43:55.054Z,60.86
2018-02-25T10:44:55.065Z,60.77
2018-02-25T10:45:55.116Z,60.96
2018-02-25T10:46:55.075Z,60.39
2018-02-25T10:47:55.076Z,60.58
2018-02-25T10:48:55.085Z,60.27
2018-02-25T10:49:55.082Z,59.23
2018-02-25T10:50:55.139Z,60.96
2018-02-25T10:51:55.091Z,61.24
2018-02-25T10:52:55.101Z,60.86
2018-02-25T10:53:55.102Z,60.58
2018-02-25T10:54:55.688Z,60.68
2018-02-25T10:55:55.109Z,60.21
2018-02-25T10:56:55.173Z,60.02
2018-02-25T10:57:55.117Z,58.98
2018-02-25T10:58:55.132Z,58.79
2018-02-25T10:59:55.126Z,58.69
2018-02-25T11:00:55.176Z,58.69
2018-02-25T11:01:55.138Z,57.84
2018-02-25T11:02:55.141Z,57.37
2018-02-25T11:03:55.148Z,57.09
2018-02-25T11:04:55.164Z,57.75
2018-02-25T11:05:55.197Z,57.56
2018-02-25T11:06:55.160Z,57.31
2018-02-25T11:07:55.693Z,56.27
2018-02-25T11:08:55.171Z,55.51
2018-02-25T11:09:55.691Z,54.92
2018-02-25T11:10:55.226Z,55.58
2018-02-25T11:11:55.183Z,55.58
2018-02-25T11:12:55.189Z,55.30
2018-02-25T11:13:55.194Z,54.63
2018-02-25T11:14:55.200Z,55.58
2018-02-25T11:15:55.267Z,55.61
2018-02-25T11:16:55.206Z,54.82
2018-02-25T11:17:55.670Z,55.20
2018-02-25T11:18:55.218Z,55.30
2018-02-25T11:19:55.224Z,55.30
2018-02-25T11:20:55.229Z,55.58
2018-02-25T11:21:55.282Z,54.73
2018-02-25T11:22:55.240Z,54.92
2018-02-25T11:23:55.246Z,55.23
2018-02-25T11:24:55.252Z,54.63
2018-02-25T11:25:55.256Z,54.82
2018-02-25T11:26:55.318Z,54.66
2018-02-25T11:27:55.263Z,54.85
2018-02-25T11:28:55.270Z,53.63
2018-02-25T11:29:55.444Z,52.21
2018-02-25T11:30:55.281Z,52.40
2018-02-25T11:31:55.286Z,52.18
2018-02-25T11:32:55.326Z,52.30
2018-02-25T11:33:55.292Z,52.11
2018-02-25T11:34:55.302Z,51.54
2018-02-25T11:35:55.305Z,52.49
2018-02-25T11:36:55.354Z,51.92
2018-02-25T11:37:55.316Z,52.40
2018-02-25T11:38:55.363Z,52.11
2018-02-25T11:39:55.328Z,52.96
2018-02-25T11:40:56.197Z,53.25
2018-02-25T11:41:55.382Z,52.68
2018-02-25T11:42:55.344Z,52.49
2018-02-25T11:43:55.351Z,52.30
2018-02-25T11:44:56.209Z,52.21
2018-02-25T11:45:55.363Z,51.92
2018-02-25T11:46:55.426Z,51.36
2018-02-25T11:47:55.376Z,50.79
2018-02-25T11:48:55.423Z,50.58
2018-02-25T11:49:55.389Z,51.14
2018-02-25T11:50:55.390Z,50.86
2018-02-25T11:51:55.457Z,50.95
2018-02-25T11:52:55.402Z,51.17
2018-02-25T11:53:55.452Z,51.14
2018-02-25T11:54:56.205Z,51.07
2018-02-25T11:55:55.419Z,51.36
2018-02-25T11:56:55.785Z,50.51
2018-02-25T11:57:55.471Z,50.23
2018-02-25T11:58:55.436Z,50.04
2018-02-25T11:59:55.438Z,50.70
2018-02-25T12:00:55.448Z,50.32
2018-02-25T12:01:55.489Z,49.66
2018-02-25T12:02:55.459Z,48.52
2018-02-25T12:03:55.463Z,48.24
2018-02-25T12:04:55.466Z,49.47
2018-02-25T12:05:55.470Z,49.09
2018-02-25T12:06:55.521Z,49.19
2018-02-25T12:07:55.486Z,50.04
2018-02-25T12:08:55.489Z,49.47
2018-02-25T12:09:55.494Z,49.47
2018-02-25T12:10:55.501Z,50.23
2018-02-25T12:11:55.566Z,49.57
2018-02-25T12:12:55.511Z,48.62
2018-02-25T12:13:55.516Z,49.38
2018-02-25T12:14:59.278Z,49.94
2018-02-25T12:15:55.530Z,49.87
2018-02-25T12:16:55.532Z,49.38
2018-02-25T12:17:55.583Z,49.47
2018-02-25T12:18:55.546Z,49.19
2018-02-25T12:19:55.555Z,49.38
2018-02-25T12:20:55.553Z,49.57
2018-02-25T12:21:55.618Z,50.35
2018-02-25T12:22:56.127Z,49.57
2018-02-25T12:23:55.571Z,49.66
2018-02-25T12:24:55.620Z,49.76
2018-02-25T12:25:55.583Z,49.47
2018-02-25T12:26:55.586Z,48.52
2018-02-25T12:27:55.651Z,48.15
2018-02-25T12:28:55.685Z,49.00
2018-02-25T12:29:55.605Z,49.38
2018-02-25T12:30:55.608Z,49.49
2018-02-25T12:31:55.615Z,49.00
2018-02-25T12:32:55.619Z,49.11
2018-02-25T12:33:55.626Z,48.18
2018-02-25T12:34:55.670Z,46.92
2018-02-25T12:35:55.638Z,46.64
2018-02-25T12:36:55.696Z,46.17
2018-02-25T12:37:55.650Z,46.36
2018-02-25T12:38:55.690Z,46.83
2018-02-25T12:39:55.663Z,47.39
2018-02-25T12:40:55.663Z,47.49
2018-02-25T12:41:55.722Z,48.08
2018-02-25T12:42:55.670Z,47.58
2018-02-25T12:43:55.678Z,47.02
2018-02-25T12:44:55.719Z,46.92
2018-02-25T12:45:55.686Z,46.94
2018-02-25T12:46:55.692Z,47.04
2018-02-25T12:47:55.734Z,46.75
2018-02-25T12:48:55.695Z,46.55
2018-02-25T12:49:55.703Z,46.17
2018-02-25T12:50:55.708Z,46.55
2018-02-25T12:51:55.714Z,46.45